(°C)
(°C)
-5°
-5°
-5°
-4°
-2°
-1°
-0°
VNV
VNV
VNV
VNV
VNV
VNV
VNV
(km/h)
11-21
11-22
12-23
13-24
14-27
16-29
18-33
(mm)
0
0
0
0
0
0
0
(%)
0
0
0
0
0
0
0

Elevația soarelui

/ -8.4°
sun-icon
UV 1
07:26
17:55
Primul pătrar (167°)
17:52
05:40

METAR pentru 52.53°N 31.02°E (UMGG)

Ora Condiții Temperatură/
Punctul de rouă
Vânt Vizibilitate Vremea Nori Presiune Schimbă Brut
VFR 0°C / -1°C 270º 10kt >10km - Clouds and Visibility OK 1020 No Significant change UMGG 190300Z 27005MPS CAVOK M00/M01 Q1020 R28/D NOSIG
VFR 0°C / -2°C 260º 8kt >10km - Clouds and Visibility OK 1020 No Significant change UMGG 190200Z 26004MPS CAVOK 00/M02 Q1020 R28/CLRD// NOSIG
VFR 0°C / -2°C 260º 10kt >10km - Clouds and Visibility OK 1020 No Significant change UMGG 190100Z 26005MPS CAVOK 00/M02 Q1020 R28/CLRD// NOSIG
VFR 1°C / -1°C 260º 10kt >10km - Clouds and Visibility OK 1019 No Significant change UMGG 190000Z 26005MPS CAVOK 01/M01 Q1019 R28/CLRD// NOSIG
VFR 1°C / -1°C 260º 8kt >10km - Clouds and Visibility OK 1019 No Significant change UMGG 182300Z 26004MPS CAVOK 01/M01 Q1019 R28/CLRD// NOSIG
VFR 2°C / 0°C 270º 8kt >10km - Clouds and Visibility OK 1019 No Significant change UMGG 182200Z 27004MPS CAVOK 02/M00 Q1019 R28/CLRD// NOSIG
VFR 3°C / 1°C 260º 8kt >10km - Few Clouds 4700ft
Scattered Clouds 20000ft
1019 No Significant change UMGG 182100Z 26004MPS 9999 FEW047 SCT200 03/01 Q1019 R28/CLRD// NOSIG
VFR 3°C / 2°C 280º 8kt >10km - Clouds and Visibility OK 1018 No Significant change UMGG 182000Z 28004MPS CAVOK 03/02 Q1018 R28/CLRD// NOSIG
MVFR 4°C / 3°C 280º 10kt 8000m - Clear 1018 No Significant change UMGG 181900Z 28005MPS 8000 NSC 04/03 Q1018 R28/CLRD// NOSIG
MVFR 4°C / 3°C 260º 8kt 7000m - Clear 1018 No Significant change UMGG 181800Z 26004MPS 7000 NSC 04/03 Q1018 R28/CLRD// NOSIG
VFR 5°C / 4°C 260º 6kt >10km - Clouds and Visibility OK 1018 No Significant change UMGG 181700Z 26003MPS CAVOK 05/04 Q1018 R28/D NOSIG
VFR 6°C / 4°C 280º 6kt >10km - Few Clouds 1900ft
Broken Clouds 10000ft
1018 No Significant change UMGG 181630Z 28003MPS 9999 FEW019 BKN100 06/04 Q1018 R28/CLRD// NOSIG
VFR 6°C / 4°C 270º 8kt >10km - Few Clouds 2100ft
Broken Clouds 10000ft
1017 No Significant change UMGG 181600Z 27004MPS 9999 FEW021 BKN100 06/04 Q1017 R28/D NOSIG
VFR 7°C / 4°C 270º 10kt >10km - Few Clouds 2100ft
Broken Clouds 10000ft
1017 No Significant change UMGG 181530Z 27005MPS 9999 FEW021 BKN100 07/04 Q1017 R28/CLRD// NOSIG
VFR 7°C / 4°C 270º 10kt >10km - Few Clouds 4000ft
Broken Clouds 10000ft
1017 No Significant change UMGG 181500Z 27005MPS 9999 FEW040 BKN100 07/04 Q1017 R28/CLRD// NOSIG
VFR 8°C / 4°C 270º 12kt >10km - Few Clouds 2700ft
Broken Clouds 10000ft
1017 No Significant change UMGG 181430Z 27006MPS 9999 FEW027 BKN100 08/04 Q1017 R28/CLRD// NOSIG
VFR 8°C / 4°C 270º 10kt Gust 16kt >10km - Few Clouds 2200ft
Broken Clouds 10000ft
1017 No Significant change UMGG 181400Z 27005G08MPS 9999 FEW022 BKN100 08/04 Q1017 R28/D NOSIG
VFR 8°C / 4°C 270º 10kt Gust 16kt >10km - Scattered Clouds 4000ft
Broken Clouds 10000ft
1017 No Significant change UMGG 181330Z 27005G08MPS 9999 SCT040 BKN100 08/04 Q1017 R28/CLRD// NOSIG
VFR 8°C / 4°C 280º 10kt Gust 16kt >10km - Broken Clouds 3900ft
Overcast 10000ft
1017 No Significant change UMGG 181300Z 28005G08MPS 9999 BKN039 OVC100 08/04 Q1017 R28/CLRD// NOSIG
MVFR 8°C / 4°C 280º 10kt Gust 16kt >10km - Broken Clouds 2100ft
Overcast 10000ft
1017 No Significant change UMGG 181230Z 28005G08MPS 9999 BKN021 OVC100 08/04 Q1017 R28/CLRD// NOSIG
MVFR 8°C / 4°C 280º 10kt Gust 16kt >10km - Broken Clouds 2000ft
Overcast 10000ft
1017 No Significant change UMGG 181200Z 28005G08MPS 9999 BKN020 OVC100 08/04 Q1017 R28/CLRD// NOSIG
MVFR 8°C / 4°C 280º 10kt Gust 16kt >10km - Broken Clouds 1700ft
Overcast 10000ft
1017 No Significant change UMGG 181130Z 28005G08MPS 9999 BKN017 OVC100 08/04 Q1017 R28/CLRD// NOSIG
MVFR 8°C / 4°C 280º 10kt Gust 16kt >10km - Broken Clouds 1700ft
Overcast 10000ft
1016 No Significant change UMGG 181100Z 28005G08MPS 9999 BKN017 OVC100 08/04 Q1016 R28/CLRD// NOSIG
MVFR 8°C / 4°C 280º 10kt Gust 16kt >10km - Overcast 1700ft 1016 No Significant change UMGG 181030Z 28005G08MPS 9999 OVC017 08/04 Q1016 R28/CLRD// NOSIG

VFR

0°C / -1°C

[Mai mult]
Vânt 270º 10kt
Vizibilitate >10km
Vremea -
Nori Clouds and Visibility OK
Presiune 1020
Schimbă No Significant change
Brut UMGG 190300Z 27005MPS CAVOK M00/M01 Q1020 R28/D NOSIG

VFR

0°C / -2°C

[Mai mult]
Vânt 260º 8kt
Vizibilitate >10km
Vremea -
Nori Clouds and Visibility OK
Presiune 1020
Schimbă No Significant change
Brut UMGG 190200Z 26004MPS CAVOK 00/M02 Q1020 R28/CLRD// NOSIG

VFR

0°C / -2°C

[Mai mult]
Vânt 260º 10kt
Vizibilitate >10km
Vremea -
Nori Clouds and Visibility OK
Presiune 1020
Schimbă No Significant change
Brut UMGG 190100Z 26005MPS CAVOK 00/M02 Q1020 R28/CLRD// NOSIG

VFR

1°C / -1°C

[Mai mult]
Vânt 260º 10kt
Vizibilitate >10km
Vremea -
Nori Clouds and Visibility OK
Presiune 1019
Schimbă No Significant change
Brut UMGG 190000Z 26005MPS CAVOK 01/M01 Q1019 R28/CLRD// NOSIG

VFR

1°C / -1°C

[Mai mult]
Vânt 260º 8kt
Vizibilitate >10km
Vremea -
Nori Clouds and Visibility OK
Presiune 1019
Schimbă No Significant change
Brut UMGG 182300Z 26004MPS CAVOK 01/M01 Q1019 R28/CLRD// NOSIG

VFR

2°C / 0°C

[Mai mult]
Vânt 270º 8kt
Vizibilitate >10km
Vremea -
Nori Clouds and Visibility OK
Presiune 1019
Schimbă No Significant change
Brut UMGG 182200Z 27004MPS CAVOK 02/M00 Q1019 R28/CLRD// NOSIG

VFR

3°C / 1°C

[Mai mult]
Vânt 260º 8kt
Vizibilitate >10km
Vremea -
Nori Few Clouds 4700ft
Scattered Clouds 20000ft
Presiune 1019
Schimbă No Significant change
Brut UMGG 182100Z 26004MPS 9999 FEW047 SCT200 03/01 Q1019 R28/CLRD// NOSIG

VFR

3°C / 2°C

[Mai mult]
Vânt 280º 8kt
Vizibilitate >10km
Vremea -
Nori Clouds and Visibility OK
Presiune 1018
Schimbă No Significant change
Brut UMGG 182000Z 28004MPS CAVOK 03/02 Q1018 R28/CLRD// NOSIG

MVFR

4°C / 3°C

[Mai mult]
Vânt 280º 10kt
Vizibilitate 8000m
Vremea -
Nori Clear
Presiune 1018
Schimbă No Significant change
Brut UMGG 181900Z 28005MPS 8000 NSC 04/03 Q1018 R28/CLRD// NOSIG

MVFR

4°C / 3°C

[Mai mult]
Vânt 260º 8kt
Vizibilitate 7000m
Vremea -
Nori Clear
Presiune 1018
Schimbă No Significant change
Brut UMGG 181800Z 26004MPS 7000 NSC 04/03 Q1018 R28/CLRD// NOSIG

VFR

5°C / 4°C

[Mai mult]
Vânt 260º 6kt
Vizibilitate >10km
Vremea -
Nori Clouds and Visibility OK
Presiune 1018
Schimbă No Significant change
Brut UMGG 181700Z 26003MPS CAVOK 05/04 Q1018 R28/D NOSIG

VFR

6°C / 4°C

[Mai mult]
Vânt 280º 6kt
Vizibilitate >10km
Vremea -
Nori Few Clouds 1900ft
Broken Clouds 10000ft
Presiune 1018
Schimbă No Significant change
Brut UMGG 181630Z 28003MPS 9999 FEW019 BKN100 06/04 Q1018 R28/CLRD// NOSIG

VFR

6°C / 4°C

[Mai mult]
Vânt 270º 8kt
Vizibilitate >10km
Vremea -
Nori Few Clouds 2100ft
Broken Clouds 10000ft
Presiune 1017
Schimbă No Significant change
Brut UMGG 181600Z 27004MPS 9999 FEW021 BKN100 06/04 Q1017 R28/D NOSIG

VFR

7°C / 4°C

[Mai mult]
Vânt 270º 10kt
Vizibilitate >10km
Vremea -
Nori Few Clouds 2100ft
Broken Clouds 10000ft
Presiune 1017
Schimbă No Significant change
Brut UMGG 181530Z 27005MPS 9999 FEW021 BKN100 07/04 Q1017 R28/CLRD// NOSIG

VFR

7°C / 4°C

[Mai mult]
Vânt 270º 10kt
Vizibilitate >10km
Vremea -
Nori Few Clouds 4000ft
Broken Clouds 10000ft
Presiune 1017
Schimbă No Significant change
Brut UMGG 181500Z 27005MPS 9999 FEW040 BKN100 07/04 Q1017 R28/CLRD// NOSIG

VFR

8°C / 4°C

[Mai mult]
Vânt 270º 12kt
Vizibilitate >10km
Vremea -
Nori Few Clouds 2700ft
Broken Clouds 10000ft
Presiune 1017
Schimbă No Significant change
Brut UMGG 181430Z 27006MPS 9999 FEW027 BKN100 08/04 Q1017 R28/CLRD// NOSIG

VFR

8°C / 4°C

[Mai mult]
Vânt 270º 10kt Gust 16kt
Vizibilitate >10km
Vremea -
Nori Few Clouds 2200ft
Broken Clouds 10000ft
Presiune 1017
Schimbă No Significant change
Brut UMGG 181400Z 27005G08MPS 9999 FEW022 BKN100 08/04 Q1017 R28/D NOSIG

VFR

8°C / 4°C

[Mai mult]
Vânt 270º 10kt Gust 16kt
Vizibilitate >10km
Vremea -
Nori Scattered Clouds 4000ft
Broken Clouds 10000ft
Presiune 1017
Schimbă No Significant change
Brut UMGG 181330Z 27005G08MPS 9999 SCT040 BKN100 08/04 Q1017 R28/CLRD// NOSIG

VFR

8°C / 4°C

[Mai mult]
Vânt 280º 10kt Gust 16kt
Vizibilitate >10km
Vremea -
Nori Broken Clouds 3900ft
Overcast 10000ft
Presiune 1017
Schimbă No Significant change
Brut UMGG 181300Z 28005G08MPS 9999 BKN039 OVC100 08/04 Q1017 R28/CLRD// NOSIG

MVFR

8°C / 4°C

[Mai mult]
Vânt 280º 10kt Gust 16kt
Vizibilitate >10km
Vremea -
Nori Broken Clouds 2100ft
Overcast 10000ft
Presiune 1017
Schimbă No Significant change
Brut UMGG 181230Z 28005G08MPS 9999 BKN021 OVC100 08/04 Q1017 R28/CLRD// NOSIG

MVFR

8°C / 4°C

[Mai mult]
Vânt 280º 10kt Gust 16kt
Vizibilitate >10km
Vremea -
Nori Broken Clouds 2000ft
Overcast 10000ft
Presiune 1017
Schimbă No Significant change
Brut UMGG 181200Z 28005G08MPS 9999 BKN020 OVC100 08/04 Q1017 R28/CLRD// NOSIG

MVFR

8°C / 4°C

[Mai mult]
Vânt 280º 10kt Gust 16kt
Vizibilitate >10km
Vremea -
Nori Broken Clouds 1700ft
Overcast 10000ft
Presiune 1017
Schimbă No Significant change
Brut UMGG 181130Z 28005G08MPS 9999 BKN017 OVC100 08/04 Q1017 R28/CLRD// NOSIG

MVFR

8°C / 4°C

[Mai mult]
Vânt 280º 10kt Gust 16kt
Vizibilitate >10km
Vremea -
Nori Broken Clouds 1700ft
Overcast 10000ft
Presiune 1016
Schimbă No Significant change
Brut UMGG 181100Z 28005G08MPS 9999 BKN017 OVC100 08/04 Q1016 R28/CLRD// NOSIG

MVFR

8°C / 4°C

[Mai mult]
Vânt 280º 10kt Gust 16kt
Vizibilitate >10km
Vremea -
Nori Overcast 1700ft
Presiune 1016
Schimbă No Significant change
Brut UMGG 181030Z 28005G08MPS 9999 OVC017 08/04 Q1016 R28/CLRD// NOSIG

TAF pentru 52.53°N 31.02°E (UMGG)

From till


Maximum Temperature 8ºC on . Minimum Temperature -1ºC on .
From till Wind 280º 14kt. Visibility 10km or more. Broken Clouds 1500ft.
Temporarly from till Wind 300º 12kt. Visibility 1200m. Mist . Scattered Clouds 400ft.
Temporarly from till Wind 300º 14kt. Visibility 2000m. Mist . Broken Clouds 500ft.
Temporarly from till Wind 310º 16kt. Gust 25kt.
Becoming from till Wind 260º 12kt. Visibility 10km or more. Broken Clouds 1500ft.
Temporarly from till Wind 240º 10kt. Visibility 1200m. Mist . Broken Clouds 400ft.

Brut: TAF UMGG 182300Z 1900/1924 28007MPS 9999 BKN015 TX08/1911Z TNM01/1903Z TEMPO 1900/1905 30006MPS 1200 BR SCT004 TEMPO 1905/1907 30007MPS 2000 BR BKN005 TEMPO 1907/1915 31008G13MPS BECMG 1920/1922 26006MPS TEMPO 1920/1924 24005MPS 1200 BR BKN004

Imagini satelitare și ploaie pentru 52.53°N 31.02°E

Markerul cu locaţia este poziţionat pe 52.53°N 31.02°E. [Mai mult]

Imaginea satelitară în timp real combină lumina vizibilă din timpul zilei cu radiația cu infraroșu din timpul nopții. Pe timp de noapte, imaginea nu este întunecată, deoarece radiația cu infraroșu poate detecta diferențele de temperatură. Din păcate, norii joși și ceața sunt greu de recunoscut față de temperatura de la sol, din această cauză putând fi invizibili pe timp de noapte. Imaginile satelitare Meteosat pentru Europa sunt actualizate în timp real din 5 în 5 minute. Imaginile GOES-16/GOES-17 (America de Nord și de Sud) și Himawari (Asia) sunt actualizate din 10 în 10 minute.

Toate drepturile rezervate 2021 EUMETSAT / meteoblue. / Toate drepturile rezervate 2021 meteoblue

Radar și nowcast de precipitații pentru 52.53°N 31.02°E

Burniță
Ușoară
Moderat
Greu
Foarte greu
Grindină

Markerul de locație este plasat în 52.53°N 31.02°E. Această animație arată radarul de precipitații pentru ultima oră, precum și o 1h prognoză. Ploaia sau ninsoarea slabă ar putea fi invizibilă pentru radar. Intensitatea precipitațiilor este codificată prin culori, de la albastru deschis la portocaliu.